createdAt,value
2017-11-28T00:00:11.188Z,0
2017-11-28T00:01:21.957Z,0
2017-11-28T00:02:32.089Z,0
2017-11-28T00:03:42.599Z,0
2017-11-28T00:04:52.980Z,0
2017-11-28T00:06:03.612Z,0
2017-11-28T00:07:13.934Z,0
2017-11-28T00:08:24.304Z,0
2017-11-28T00:09:34.278Z,0
2017-11-28T00:10:44.613Z,0
2017-11-28T00:11:54.915Z,0
2017-11-28T00:13:05.184Z,0
2017-11-28T00:14:15.714Z,0
2017-11-28T00:15:26.082Z,0
2017-11-28T00:16:36.360Z,0
2017-11-28T00:17:46.492Z,0
2017-11-28T00:18:56.820Z,0
2017-11-28T00:20:07.109Z,0
2017-11-28T00:21:17.485Z,0
2017-11-28T00:22:27.706Z,0
2017-11-28T00:23:37.982Z,0
2017-11-28T00:24:48.284Z,0
2017-11-28T00:25:58.631Z,0
2017-11-28T00:27:08.941Z,0
2017-11-28T00:28:19.563Z,0
2017-11-28T00:29:29.848Z,0
2017-11-28T00:30:40.080Z,0
2017-11-28T00:31:50.649Z,0
2017-11-28T00:33:00.685Z,0
2017-11-28T00:34:11.296Z,0
2017-11-28T00:35:21.313Z,0
2017-11-28T00:36:32.030Z,0
2017-11-28T00:38:14.415Z,0
2017-11-28T00:39:24.948Z,0
2017-11-28T00:40:35.171Z,0
2017-11-28T00:41:45.929Z,0
2017-11-28T00:42:56.437Z,0
2017-11-28T00:44:06.700Z,0
2017-11-28T00:45:16.850Z,0
2017-11-28T00:46:27.392Z,0
2017-11-28T00:47:37.709Z,0
2017-11-28T00:48:47.926Z,0
2017-11-28T00:49:59.689Z,0
2017-11-28T00:51:09.704Z,0
2017-11-28T00:52:20.078Z,0
2017-11-28T00:53:30.625Z,0
2017-11-28T00:54:41.111Z,0
2017-11-28T00:55:51.436Z,0
2017-11-28T00:57:01.718Z,0
2017-11-28T00:58:12.367Z,0
2017-11-28T00:59:22.761Z,0
2017-11-28T01:00:32.653Z,0
2017-11-28T01:01:43.222Z,0
2017-11-28T01:02:53.504Z,0
2017-11-28T01:04:04.004Z,0
2017-11-28T01:05:14.233Z,0
2017-11-28T01:06:24.234Z,0
2017-11-28T01:07:34.773Z,0
2017-11-28T01:08:45.291Z,0
2017-11-28T01:09:55.727Z,0
2017-11-28T01:11:06.007Z,0
2017-11-28T01:12:16.661Z,0
2017-11-28T01:13:27.385Z,0
2017-11-28T01:14:37.712Z,0
2017-11-28T01:15:48.251Z,0
2017-11-28T01:16:58.860Z,0
2017-11-28T01:18:09.251Z,0
2017-11-28T01:19:19.773Z,0
2017-11-28T01:20:30.292Z,0
2017-11-28T01:21:40.573Z,0
2017-11-28T01:22:50.568Z,0
2017-11-28T01:24:01.125Z,0
2017-11-28T01:25:11.928Z,0
2017-11-28T01:26:21.894Z,0
2017-11-28T01:27:32.221Z,0
2017-11-28T01:28:43.121Z,0
2017-11-28T01:29:53.131Z,0
2017-11-28T01:31:03.399Z,0
2017-11-28T01:32:14.437Z,0
2017-11-28T01:33:25.411Z,0
2017-11-28T01:34:35.865Z,0
2017-11-28T01:35:46.620Z,0
2017-11-28T01:36:57.521Z,0
2017-11-28T01:38:07.996Z,0
2017-11-28T01:39:18.944Z,0
2017-11-28T01:40:29.246Z,0
2017-11-28T01:41:39.544Z,0
2017-11-28T01:42:49.824Z,0
2017-11-28T01:44:00.442Z,0
2017-11-28T01:45:10.732Z,0
2017-11-28T01:46:21.344Z,0
2017-11-28T01:47:31.645Z,0
2017-11-28T01:48:42.118Z,0
2017-11-28T01:49:52.483Z,0
2017-11-28T01:51:03.059Z,0
2017-11-28T01:52:13.893Z,0
2017-11-28T01:53:23.916Z,0
2017-11-28T01:54:34.268Z,0
2017-11-28T01:55:44.641Z,0
2017-11-28T01:56:55.363Z,0
2017-11-28T01:58:05.853Z,0
2017-11-28T01:59:16.305Z,0
2017-11-28T02:00:27.624Z,0
2017-11-28T02:01:38.340Z,0
2017-11-28T02:02:48.913Z,0
2017-11-28T02:03:59.421Z,0
2017-11-28T02:05:09.800Z,0
2017-11-28T02:06:20.331Z,0
2017-11-28T02:07:30.929Z,0
2017-11-28T02:08:41.449Z,0
2017-11-28T02:09:51.942Z,0
2017-11-28T02:11:02.219Z,0
2017-11-28T02:12:12.250Z,0
2017-11-28T02:13:22.561Z,0
2017-11-28T02:14:33.109Z,0
2017-11-28T02:15:43.123Z,0
2017-11-28T02:16:53.036Z,0
2017-11-28T02:18:03.310Z,0
2017-11-28T02:19:13.658Z,0
2017-11-28T02:20:23.732Z,0
2017-11-28T02:21:33.363Z,0
2017-11-28T02:22:43.465Z,0
2017-11-28T02:23:53.988Z,0
2017-11-28T02:25:04.301Z,0
2017-11-28T02:26:14.563Z,0
2017-11-28T02:27:24.950Z,0
2017-11-28T02:28:35.251Z,0
2017-11-28T02:29:45.563Z,0
2017-11-28T02:30:55.581Z,0
2017-11-28T02:32:06.122Z,0
2017-11-28T02:33:16.421Z,0
2017-11-28T02:34:26.555Z,0
2017-11-28T02:35:37.061Z,0
2017-11-28T02:36:47.062Z,0
2017-11-28T02:37:57.438Z,0
2017-11-28T02:39:07.781Z,0
2017-11-28T02:40:18.195Z,0
2017-11-28T02:41:28.536Z,0
2017-11-28T02:42:38.952Z,0
2017-11-28T02:43:49.235Z,0
2017-11-28T02:44:59.548Z,0
2017-11-28T02:46:09.879Z,0
2017-11-28T02:47:20.333Z,0
2017-11-28T02:48:30.369Z,0
2017-11-28T02:49:40.078Z,0
2017-11-28T02:50:50.413Z,0
2017-11-28T02:52:00.416Z,0
2017-11-28T02:53:10.676Z,0
2017-11-28T02:54:20.701Z,0
2017-11-28T02:55:30.687Z,0
2017-11-28T02:56:40.727Z,0
2017-11-28T02:57:51.012Z,0
2017-11-28T02:59:01.542Z,0
2017-11-28T03:00:11.537Z,0
2017-11-28T03:01:21.926Z,0
2017-11-28T03:02:32.353Z,0
2017-11-28T03:03:42.642Z,0
2017-11-28T03:04:52.985Z,0
2017-11-28T03:06:03.283Z,0
2017-11-28T03:07:13.988Z,0
2017-11-28T03:08:23.966Z,0
2017-11-28T03:09:33.585Z,0
2017-11-28T03:10:43.864Z,0
2017-11-28T03:11:54.152Z,0
2017-11-28T03:13:04.448Z,0
2017-11-28T03:14:14.375Z,0
2017-11-28T03:15:24.415Z,0
2017-11-28T03:16:34.869Z,0
2017-11-28T03:17:45.348Z,0
2017-11-28T03:18:55.654Z,0
2017-11-28T03:20:05.935Z,0
2017-11-28T03:21:16.512Z,0
2017-11-28T03:22:26.378Z,0
2017-11-28T03:23:36.420Z,0
2017-11-28T03:24:46.054Z,0
2017-11-28T03:25:55.673Z,0
2017-11-28T03:27:05.939Z,0
2017-11-28T03:28:15.955Z,0
2017-11-28T03:29:26.354Z,0
2017-11-28T03:30:36.658Z,0
2017-11-28T03:31:46.941Z,0
2017-11-28T03:32:56.999Z,0
2017-11-28T03:34:07.078Z,0
2017-11-28T03:35:16.837Z,0
2017-11-28T03:36:26.848Z,0
2017-11-28T03:37:37.140Z,0
2017-11-28T03:38:47.589Z,0
2017-11-28T03:39:57.885Z,0
2017-11-28T03:41:08.232Z,0
2017-11-28T03:42:18.751Z,0
2017-11-28T03:43:29.073Z,0
2017-11-28T03:44:39.193Z,0
2017-11-28T03:45:49.228Z,0
2017-11-28T03:46:58.898Z,0
2017-11-28T03:48:09.142Z,0
2017-11-28T03:49:19.570Z,0
2017-11-28T03:50:29.875Z,0
2017-11-28T03:51:40.158Z,0
2017-11-28T03:52:50.456Z,0
2017-11-28T03:54:00.875Z,0
2017-11-28T03:55:10.894Z,0
2017-11-28T03:56:21.182Z,0
2017-11-28T03:57:31.539Z,0
2017-11-28T03:58:41.570Z,0
2017-11-28T03:59:51.927Z,0
2017-11-28T04:01:01.864Z,0
2017-11-28T04:02:12.134Z,0
2017-11-28T04:03:22.280Z,0
2017-11-28T04:04:32.574Z,0
2017-11-28T04:05:43.193Z,0
2017-11-28T04:06:53.481Z,0
2017-11-28T04:08:03.748Z,0
2017-11-28T04:09:14.103Z,0
2017-11-28T04:10:24.457Z,0
2017-11-28T04:11:34.852Z,0
2017-11-28T04:12:45.538Z,0
2017-11-28T04:13:55.559Z,0
2017-11-28T04:15:05.588Z,0
2017-11-28T04:16:15.917Z,0
2017-11-28T04:17:25.939Z,0
2017-11-28T04:18:36.218Z,0
2017-11-28T04:19:46.494Z,0
2017-11-28T04:20:56.771Z,0
2017-11-28T04:22:07.121Z,0
2017-11-28T04:23:17.703Z,0
2017-11-28T04:24:27.982Z,0
2017-11-28T04:25:37.868Z,0
2017-11-28T04:26:48.198Z,0
2017-11-28T04:27:58.197Z,0
2017-11-28T04:29:08.366Z,0
2017-11-28T04:30:18.716Z,0
2017-11-28T04:31:29.273Z,0
2017-11-28T04:32:39.762Z,0
2017-11-28T04:33:50.089Z,0
2017-11-28T04:35:00.405Z,0
2017-11-28T04:36:10.694Z,0
2017-11-28T04:37:20.960Z,0
2017-11-28T04:38:30.977Z,0
2017-11-28T04:39:41.255Z,0
2017-11-28T04:40:51.460Z,0
2017-11-28T04:42:01.557Z,0
2017-11-28T04:43:12.039Z,0
2017-11-28T04:44:22.351Z,0
2017-11-28T04:45:32.646Z,0
2017-11-28T04:46:43.005Z,0
2017-11-28T04:47:53.282Z,0
2017-11-28T04:49:03.388Z,0
2017-11-28T04:50:13.693Z,0
2017-11-28T04:51:23.982Z,0
2017-11-28T04:52:34.290Z,0
2017-11-28T04:53:44.709Z,0
2017-11-28T04:54:55.008Z,0
2017-11-28T04:56:04.733Z,0
2017-11-28T04:57:15.062Z,0
2017-11-28T04:58:25.346Z,0
2017-11-28T04:59:35.688Z,0
2017-11-28T05:00:45.741Z,0
2017-11-28T05:01:56.017Z,0
2017-11-28T05:03:06.427Z,0
2017-11-28T05:04:15.938Z,0
2017-11-28T05:05:26.207Z,0
2017-11-28T05:06:36.243Z,0
2017-11-28T05:07:46.248Z,0
2017-11-28T05:08:55.987Z,0
2017-11-28T05:10:05.999Z,0
2017-11-28T05:11:16.026Z,0
2017-11-28T05:12:26.513Z,0
2017-11-28T05:13:36.822Z,0
2017-11-28T05:14:46.982Z,0
2017-11-28T05:15:57.023Z,0
2017-11-28T05:17:07.572Z,0
2017-11-28T05:18:17.970Z,0
2017-11-28T05:19:28.259Z,0
2017-11-28T05:20:38.559Z,0
2017-11-28T05:21:48.838Z,0
2017-11-28T05:22:59.139Z,0
2017-11-28T05:24:09.413Z,0
2017-11-28T05:25:19.695Z,0
2017-11-28T05:26:29.773Z,0
2017-11-28T05:27:40.060Z,0
2017-11-28T05:28:50.366Z,0
2017-11-28T05:30:00.680Z,0
2017-11-28T05:31:10.619Z,0
2017-11-28T05:32:20.907Z,0
2017-11-28T05:33:31.258Z,0
2017-11-28T05:34:41.561Z,0
2017-11-28T05:35:52.046Z,0
2017-11-28T05:37:02.357Z,0
2017-11-28T05:38:12.465Z,0
2017-11-28T05:39:22.775Z,0
2017-11-28T05:40:33.265Z,0
2017-11-28T05:41:43.570Z,0
2017-11-28T05:42:53.857Z,0
2017-11-28T05:44:04.195Z,0
2017-11-28T05:45:14.498Z,0
2017-11-28T05:46:24.493Z,0
2017-11-28T05:47:35.433Z,0
2017-11-28T05:48:45.707Z,0
2017-11-28T05:49:55.694Z,0
2017-11-28T05:51:05.982Z,0
2017-11-28T05:52:16.313Z,0
2017-11-28T05:53:26.611Z,0
2017-11-28T05:54:36.926Z,0
2017-11-28T05:55:47.246Z,0
2017-11-28T05:56:57.557Z,0
2017-11-28T05:58:07.180Z,0
2017-11-28T05:59:17.851Z,0
2017-11-28T06:00:28.338Z,0
2017-11-28T06:01:37.978Z,0
2017-11-28T06:02:48.430Z,0
2017-11-28T06:03:58.535Z,0
2017-11-28T06:05:08.861Z,0
2017-11-28T06:06:19.138Z,0
2017-11-28T06:07:29.210Z,0
2017-11-28T06:08:39.557Z,0
2017-11-28T06:09:49.837Z,0
2017-11-28T06:10:59.862Z,0
2017-11-28T06:12:11.141Z,0
2017-11-28T06:13:21.438Z,0
2017-11-28T06:14:31.759Z,0
2017-11-28T06:15:41.841Z,0
2017-11-28T06:16:52.356Z,0
2017-11-28T06:18:02.682Z,0
2017-11-28T06:19:12.990Z,0
2017-11-28T06:20:23.141Z,0
2017-11-28T06:21:33.219Z,0
2017-11-28T06:22:43.597Z,0
2017-11-28T06:23:53.896Z,0
2017-11-28T06:25:04.128Z,0
2017-11-28T06:26:14.044Z,4
2017-11-28T06:27:24.121Z,4
2017-11-28T06:28:33.485Z,4
2017-11-28T06:29:43.888Z,0
2017-11-28T06:30:54.215Z,4
2017-11-28T06:32:04.232Z,4
2017-11-28T06:33:14.539Z,4
2017-11-28T06:34:24.804Z,8
2017-11-28T06:35:34.531Z,8
2017-11-28T06:36:44.824Z,12
2017-11-28T06:37:55.166Z,12
2017-11-28T06:39:05.242Z,16
2017-11-28T06:40:15.604Z,16
2017-11-28T06:41:25.874Z,20
2017-11-28T06:42:35.925Z,24
2017-11-28T06:43:45.852Z,28
2017-11-28T06:44:56.204Z,28
2017-11-28T06:46:06.378Z,32
2017-11-28T06:47:16.880Z,36
2017-11-28T06:48:27.076Z,40
2017-11-28T06:49:37.154Z,52
2017-11-28T06:50:47.149Z,56
2017-11-28T06:51:57.444Z,64
2017-11-28T06:53:07.451Z,72
2017-11-28T06:54:17.719Z,80
2017-11-28T06:55:27.987Z,96
2017-11-28T06:56:38.320Z,108
2017-11-28T06:57:48.015Z,120
2017-11-28T06:58:58.070Z,124
2017-11-28T07:00:07.989Z,136
2017-11-28T07:01:18.534Z,148
2017-11-28T07:02:28.189Z,164
2017-11-28T07:03:38.415Z,172
2017-11-28T07:04:48.685Z,184
2017-11-28T07:05:58.989Z,200
2017-11-28T07:07:09.347Z,220
2017-11-28T07:08:19.594Z,232
2017-11-28T07:09:29.400Z,216
2017-11-28T07:10:39.720Z,184
2017-11-28T07:11:49.924Z,176
2017-11-28T07:13:00.204Z,228
2017-11-28T07:14:10.292Z,300
2017-11-28T07:15:20.615Z,328
2017-11-28T07:16:30.709Z,336
2017-11-28T07:17:41.103Z,388
2017-11-28T07:18:51.464Z,376
2017-11-28T07:20:01.508Z,368
2017-11-28T07:21:11.645Z,444
2017-11-28T07:22:22.184Z,604
2017-11-28T07:23:32.212Z,620
2017-11-28T07:24:42.313Z,580
2017-11-28T07:25:52.605Z,580
2017-11-28T07:27:02.913Z,604
2017-11-28T07:28:13.238Z,644
2017-11-28T07:29:23.323Z,692
2017-11-28T07:30:33.216Z,740
2017-11-28T07:31:43.578Z,792
2017-11-28T07:32:53.914Z,812
2017-11-28T07:34:04.409Z,824
2017-11-28T07:35:14.758Z,868
2017-11-28T07:36:25.221Z,956
2017-11-28T07:37:35.534Z,1064
2017-11-28T07:38:45.880Z,1124
2017-11-28T07:39:56.237Z,1088
2017-11-28T07:41:06.555Z,1072
2017-11-28T07:42:16.867Z,1080
2017-11-28T07:43:27.166Z,1056
2017-11-28T07:44:36.935Z,1020
2017-11-28T07:45:47.265Z,968
2017-11-28T07:46:57.893Z,892
2017-11-28T07:48:08.278Z,816
2017-11-28T07:49:18.597Z,792
2017-11-28T07:50:28.636Z,764
2017-11-28T07:51:39.039Z,692
2017-11-28T07:52:48.801Z,716
2017-11-28T07:53:59.111Z,780
2017-11-28T07:55:09.715Z,924
2017-11-28T07:56:20.020Z,1052
2017-11-28T07:57:30.338Z,1288
2017-11-28T07:58:40.387Z,1308
2017-11-28T07:59:50.893Z,1308
2017-11-28T08:01:00.915Z,1092
2017-11-28T08:02:11.083Z,1000
2017-11-28T08:03:21.382Z,1092
2017-11-28T08:04:31.661Z,1304
2017-11-28T08:05:41.703Z,1296
2017-11-28T08:06:51.720Z,1360
2017-11-28T08:08:02.234Z,1568
2017-11-28T08:09:11.904Z,1768
2017-11-28T08:10:21.940Z,1772
2017-11-28T08:11:32.218Z,1624
2017-11-28T08:12:42.538Z,1520
2017-11-28T08:13:52.855Z,1420
2017-11-28T08:15:02.761Z,1156
2017-11-28T08:16:13.355Z,912
2017-11-28T08:17:23.407Z,852
2017-11-28T08:18:33.706Z,780
2017-11-28T08:19:44.003Z,840
2017-11-28T08:20:54.355Z,1104
2017-11-28T08:22:04.669Z,1476
2017-11-28T08:23:15.023Z,1748
2017-11-28T08:24:25.377Z,2208
2017-11-28T08:25:35.637Z,2360
2017-11-28T08:26:45.656Z,2600
2017-11-28T08:27:55.996Z,2536
2017-11-28T08:29:06.296Z,2524
2017-11-28T08:30:16.557Z,2508
2017-11-28T08:31:26.578Z,2320
2017-11-28T08:32:36.895Z,2192
2017-11-28T08:33:47.177Z,1936
2017-11-28T08:34:57.462Z,1908
2017-11-28T08:36:07.870Z,2000
2017-11-28T08:37:18.146Z,2436
2017-11-28T08:38:28.422Z,2668
2017-11-28T08:39:38.766Z,3008
2017-11-28T08:40:48.521Z,3124
2017-11-28T08:41:58.802Z,3168
2017-11-28T08:43:09.419Z,3192
2017-11-28T08:44:19.750Z,3268
2017-11-28T08:45:30.113Z,3332
2017-11-28T08:46:40.475Z,3348
2017-11-28T08:47:50.854Z,3292
2017-11-28T08:49:01.293Z,3280
2017-11-28T08:50:11.042Z,3236
2017-11-28T08:51:21.478Z,3016
2017-11-28T08:52:31.473Z,2860
2017-11-28T08:53:41.547Z,2764
2017-11-28T08:54:52.062Z,2468
2017-11-28T08:56:02.119Z,2436
2017-11-28T08:57:12.586Z,2592
2017-11-28T08:58:22.877Z,2964
2017-11-28T08:59:32.793Z,3128
2017-11-28T09:00:43.299Z,3476
2017-11-28T09:01:53.672Z,3660
2017-11-28T09:03:03.989Z,4604
2017-11-28T09:04:13.996Z,5512
2017-11-28T09:05:24.435Z,5668
2017-11-28T09:06:34.258Z,5336
2017-11-28T09:07:44.552Z,4616
2017-11-28T09:08:54.713Z,4620
2017-11-28T09:10:04.732Z,4656
2017-11-28T09:11:14.890Z,4420
2017-11-28T09:12:25.142Z,4088
2017-11-28T09:13:35.156Z,4016
2017-11-28T09:14:45.422Z,4300
2017-11-28T09:15:55.854Z,4540
2017-11-28T09:17:05.753Z,4968
2017-11-28T09:18:15.834Z,5000
2017-11-28T09:19:25.841Z,4732
2017-11-28T09:20:36.149Z,4308
2017-11-28T09:21:46.453Z,3388
2017-11-28T09:22:56.471Z,2780
2017-11-28T09:24:06.812Z,2968
2017-11-28T09:25:17.213Z,3512
2017-11-28T09:26:27.513Z,3920
2017-11-28T09:27:37.812Z,4140
2017-11-28T09:28:48.090Z,4012
2017-11-28T09:29:58.165Z,3488
2017-11-28T09:31:08.382Z,3200
2017-11-28T09:32:18.473Z,3936
2017-11-28T09:33:28.212Z,4924
2017-11-28T09:34:38.652Z,4992
2017-11-28T09:35:48.385Z,5124
2017-11-28T09:36:58.744Z,4280
2017-11-28T09:38:08.814Z,3008
2017-11-28T09:39:19.138Z,2616
2017-11-28T09:40:29.424Z,2160
2017-11-28T09:41:39.825Z,1852
2017-11-28T09:42:49.828Z,2084
2017-11-28T09:44:00.253Z,2052
2017-11-28T09:45:10.253Z,2720
2017-11-28T09:46:20.549Z,3544
2017-11-28T09:47:31.408Z,4848
2017-11-28T09:48:41.545Z,4944
2017-11-28T09:49:51.833Z,5204
2017-11-28T09:51:02.113Z,4280
2017-11-28T09:52:12.393Z,3852
2017-11-28T09:53:22.420Z,4564
2017-11-28T09:54:32.781Z,5436
2017-11-28T09:55:43.114Z,4772
2017-11-28T09:56:53.421Z,3776
2017-11-28T09:58:03.764Z,3460
2017-11-28T09:59:13.885Z,3300
2017-11-28T10:00:23.903Z,3252
2017-11-28T10:01:34.233Z,3236
2017-11-28T10:02:44.548Z,3192
2017-11-28T10:03:54.825Z,3760
2017-11-28T10:05:05.164Z,3700
2017-11-28T10:06:15.649Z,3324
2017-11-28T10:07:25.952Z,3084
2017-11-28T10:08:36.004Z,3100
2017-11-28T10:09:46.304Z,3044
2017-11-28T10:10:56.860Z,3100
2017-11-28T10:12:06.951Z,3440
2017-11-28T10:13:17.381Z,4188
2017-11-28T10:14:27.653Z,5376
2017-11-28T10:15:37.925Z,5376
2017-11-28T10:16:48.196Z,5076
2017-11-28T10:17:58.529Z,5036
2017-11-28T10:19:08.800Z,4704
2017-11-28T10:20:19.337Z,4900
2017-11-28T10:21:29.405Z,4712
2017-11-28T10:22:39.711Z,5832
2017-11-28T10:23:50.311Z,4764
2017-11-28T10:25:00.656Z,5112
2017-11-28T10:26:10.975Z,6024
2017-11-28T10:27:20.789Z,30848
2017-11-28T10:28:31.080Z,44064
2017-11-28T10:29:41.088Z,16480
2017-11-28T10:30:51.712Z,13228
2017-11-28T10:32:01.435Z,10088
2017-11-28T10:33:11.718Z,8492
2017-11-28T10:34:22.021Z,7764
2017-11-28T10:35:32.376Z,10952
2017-11-28T10:36:42.730Z,11248
2017-11-28T10:37:52.501Z,11076
2017-11-28T10:39:02.905Z,13552
2017-11-28T10:40:13.205Z,20320
2017-11-28T10:41:23.752Z,30976
2017-11-28T10:42:34.091Z,26400
2017-11-28T10:43:44.458Z,8552
2017-11-28T10:44:54.790Z,6904
2017-11-28T10:46:05.195Z,7884
2017-11-28T10:47:15.503Z,12716
2017-11-28T10:48:25.451Z,16832
2017-11-28T10:49:35.816Z,42848
2017-11-28T10:50:46.097Z,45632
2017-11-28T10:51:56.406Z,48736
2017-11-28T10:53:06.817Z,47616
2017-11-28T10:54:17.096Z,40704
2017-11-28T10:55:27.433Z,15040
2017-11-28T10:56:37.718Z,9268
2017-11-28T10:57:47.715Z,17920
2017-11-28T10:58:58.015Z,26816
2017-11-28T11:00:08.344Z,5012
2017-11-28T11:01:18.643Z,4352
2017-11-28T11:02:28.993Z,4400
2017-11-28T11:03:39.353Z,4324
2017-11-28T11:04:49.378Z,4168
2017-11-28T11:05:59.451Z,4488
2017-11-28T11:07:10.079Z,4032
2017-11-28T11:08:20.395Z,3892
2017-11-28T11:09:30.415Z,3564
2017-11-28T11:10:40.726Z,4048
2017-11-28T11:11:51.072Z,3924
2017-11-28T11:13:01.156Z,3552
2017-11-28T11:14:11.210Z,3072
2017-11-28T11:15:21.334Z,3012
2017-11-28T11:16:33.902Z,2708
2017-11-28T11:17:45.423Z,3900
2017-11-28T11:18:57.797Z,4896
2017-11-28T11:20:08.372Z,4964
2017-11-28T11:21:18.709Z,3880
2017-11-28T11:22:29.257Z,4704
2017-11-28T11:23:40.029Z,5556
2017-11-28T11:24:52.519Z,5648
2017-11-28T11:26:03.068Z,4524
2017-11-28T11:27:15.211Z,4980
2017-11-28T11:28:25.269Z,4564
2017-11-28T11:29:35.807Z,5040
2017-11-28T11:30:46.739Z,5440
2017-11-28T11:31:57.982Z,6672
2017-11-28T11:33:08.537Z,5892
2017-11-28T11:34:19.458Z,6420
2017-11-28T11:35:30.606Z,8876
2017-11-28T11:36:42.168Z,33536
2017-11-28T11:37:52.471Z,39040
2017-11-28T11:39:02.789Z,17152
2017-11-28T11:40:13.337Z,33440
2017-11-28T11:41:23.673Z,36480
2017-11-28T11:42:34.155Z,29888
2017-11-28T11:43:45.604Z,25728
2017-11-28T11:44:56.322Z,37216
2017-11-28T11:46:06.726Z,38976
2017-11-28T11:47:17.119Z,33568
2017-11-28T11:48:27.752Z,37408
2017-11-28T11:49:38.334Z,33856
2017-11-28T11:50:48.592Z,12436
2017-11-28T11:51:58.711Z,8992
2017-11-28T11:53:09.027Z,6192
2017-11-28T11:54:19.450Z,5436
2017-11-28T11:55:29.771Z,5788
2017-11-28T11:56:40.149Z,4632
2017-11-28T11:58:05.040Z,4208
2017-11-28T11:59:15.348Z,4028
2017-11-28T12:00:25.986Z,4232
2017-11-28T12:01:36.004Z,4196
2017-11-28T12:03:18.200Z,3680
2017-11-28T12:04:28.563Z,3392
2017-11-28T12:05:38.891Z,3552
2017-11-28T12:06:48.834Z,3676
2017-11-28T12:07:59.379Z,4776
2017-11-28T12:09:09.408Z,4472
2017-11-28T12:10:19.703Z,3872
2017-11-28T12:11:30.046Z,4032
2017-11-28T12:12:40.449Z,4772
2017-11-28T12:13:50.469Z,5696
2017-11-28T12:15:00.499Z,8884
2017-11-28T12:16:10.855Z,12336
2017-11-28T12:17:20.881Z,12120
2017-11-28T12:18:31.229Z,11100
2017-11-28T12:19:41.508Z,9920
2017-11-28T12:20:51.551Z,9188
2017-11-28T12:22:01.844Z,9460
2017-11-28T12:23:12.124Z,9712
2017-11-28T12:24:22.414Z,9952
2017-11-28T12:25:32.684Z,8392
2017-11-28T12:26:43.068Z,7600
2017-11-28T12:27:53.452Z,8116
2017-11-28T12:29:04.097Z,8244
2017-11-28T12:30:14.099Z,6824
2017-11-28T12:31:40.010Z,5984
2017-11-28T12:32:52.143Z,6764
2017-11-28T12:34:03.432Z,5840
2017-11-28T12:35:14.003Z,6668
2017-11-28T12:36:24.106Z,6736
2017-11-28T12:37:34.285Z,6320
2017-11-28T12:38:44.782Z,7668
2017-11-28T12:39:55.601Z,7456
2017-11-28T12:41:05.872Z,7736
2017-11-28T12:42:16.396Z,7296
2017-11-28T12:43:26.770Z,8048
2017-11-28T12:44:38.155Z,8188
2017-11-28T12:45:48.650Z,8076
2017-11-28T12:46:59.304Z,7588
2017-11-28T12:48:10.739Z,7260
2017-11-28T12:49:21.508Z,7024
2017-11-28T12:50:32.160Z,6648
2017-11-28T12:51:42.996Z,6068
2017-11-28T12:52:53.169Z,6944
2017-11-28T12:54:03.393Z,7052
2017-11-28T12:55:13.731Z,7224
2017-11-28T12:56:24.054Z,6984
2017-11-28T12:57:33.784Z,6676
2017-11-28T12:58:43.815Z,6628
2017-11-28T12:59:54.726Z,5592
2017-11-28T13:01:05.356Z,5364
2017-11-28T13:02:16.345Z,5668
2017-11-28T13:03:27.002Z,5724
2017-11-28T13:04:37.732Z,5556
2017-11-28T13:05:47.761Z,5312
2017-11-28T13:06:58.326Z,5168
2017-11-28T13:08:09.479Z,5236
2017-11-28T13:09:19.875Z,5088
2017-11-28T13:10:30.784Z,4500
2017-11-28T13:11:40.776Z,3860
2017-11-28T13:12:52.031Z,3384
2017-11-28T13:14:02.349Z,2968
2017-11-28T13:15:12.943Z,2688
2017-11-28T13:16:23.489Z,2696
2017-11-28T13:17:33.829Z,2680
2017-11-28T13:18:44.406Z,2876
2017-11-28T13:19:55.248Z,3192
2017-11-28T13:21:05.614Z,3484
2017-11-28T13:22:16.331Z,4536
2017-11-28T13:23:26.878Z,6136
2017-11-28T13:24:37.389Z,7424
2017-11-28T13:25:47.898Z,7600
2017-11-28T13:26:57.264Z,7744
2017-11-28T13:28:07.584Z,7820
2017-11-28T13:29:18.199Z,7896
2017-11-28T13:30:28.521Z,7628
2017-11-28T13:31:39.236Z,7284
2017-11-28T13:32:49.351Z,6644
2017-11-28T13:33:59.913Z,6156
2017-11-28T13:35:10.572Z,6172
2017-11-28T13:36:21.092Z,6516
2017-11-28T13:37:32.256Z,6944
2017-11-28T13:38:42.800Z,7012
2017-11-28T13:39:53.110Z,6520
2017-11-28T13:41:03.450Z,6192
2017-11-28T13:42:13.336Z,5588
2017-11-28T13:43:23.765Z,4840
2017-11-28T13:44:34.115Z,4888
2017-11-28T13:45:44.716Z,5220
2017-11-28T13:46:54.804Z,4972
2017-11-28T13:48:04.665Z,3876
2017-11-28T13:49:14.780Z,3272
2017-11-28T13:50:25.167Z,2936
2017-11-28T13:51:35.451Z,2676
2017-11-28T13:52:45.821Z,2716
2017-11-28T13:53:56.166Z,2860
2017-11-28T13:55:06.485Z,2752
2017-11-28T13:56:16.542Z,2660
2017-11-28T13:57:26.924Z,3172
2017-11-28T13:58:36.586Z,3168
2017-11-28T13:59:46.874Z,2944
2017-11-28T14:00:57.838Z,2844
2017-11-28T14:02:08.179Z,3164
2017-11-28T14:03:18.923Z,2936
2017-11-28T14:04:29.257Z,2580
2017-11-28T14:05:39.501Z,2408
2017-11-28T14:06:49.782Z,2100
2017-11-28T14:08:00.183Z,1932
2017-11-28T14:09:10.673Z,1860
2017-11-28T14:10:21.169Z,1852
2017-11-28T14:11:31.525Z,1640
2017-11-28T14:12:42.043Z,1568
2017-11-28T14:13:52.586Z,1748
2017-11-28T14:15:02.645Z,1624
2017-11-28T14:16:12.578Z,1576
2017-11-28T14:17:23.766Z,1336
2017-11-28T14:18:34.602Z,1204
2017-11-28T14:19:45.131Z,1204
2017-11-28T14:20:55.173Z,1168
2017-11-28T14:22:05.236Z,1104
2017-11-28T14:23:15.476Z,944
2017-11-28T14:24:26.082Z,848
2017-11-28T14:25:36.605Z,756
2017-11-28T14:26:46.914Z,676
2017-11-28T14:27:57.466Z,656
2017-11-28T14:29:07.895Z,596
2017-11-28T14:30:18.381Z,576
2017-11-28T14:31:28.945Z,544
2017-11-28T14:32:39.041Z,532
2017-11-28T14:33:49.404Z,584
2017-11-28T14:34:59.817Z,648
2017-11-28T14:36:10.079Z,660
2017-11-28T14:37:20.132Z,656
2017-11-28T14:38:29.850Z,672
2017-11-28T14:39:41.366Z,688
2017-11-28T14:40:51.610Z,676
2017-11-28T14:42:02.387Z,648
2017-11-28T14:43:13.074Z,612
2017-11-28T14:44:23.390Z,576
2017-11-28T14:45:33.470Z,524
2017-11-28T14:46:43.876Z,520
2017-11-28T14:47:54.601Z,504
2017-11-28T14:49:04.889Z,500
2017-11-28T14:50:15.055Z,528
2017-11-28T14:51:25.433Z,520
2017-11-28T14:52:36.093Z,504
2017-11-28T14:53:46.248Z,480
2017-11-28T14:54:56.266Z,452
2017-11-28T14:56:07.116Z,420
2017-11-28T14:57:17.519Z,384
2017-11-28T14:58:28.172Z,340
2017-11-28T14:59:39.385Z,304
2017-11-28T15:00:49.919Z,264
2017-11-28T15:02:00.332Z,232
2017-11-28T15:03:10.721Z,216
2017-11-28T15:04:21.539Z,192
2017-11-28T15:05:31.808Z,176
2017-11-28T15:06:42.809Z,164
2017-11-28T15:07:53.319Z,148
2017-11-28T15:09:03.995Z,124
2017-11-28T15:10:14.271Z,104
2017-11-28T15:11:24.222Z,92
2017-11-28T15:12:34.566Z,80
2017-11-28T15:13:45.153Z,64
2017-11-28T15:14:55.865Z,56
2017-11-28T15:16:05.677Z,56
2017-11-28T15:17:16.316Z,48
2017-11-28T15:18:26.513Z,40
2017-11-28T15:19:37.143Z,36
2017-11-28T15:20:47.801Z,36
2017-11-28T15:21:58.122Z,32
2017-11-28T15:23:09.282Z,28
2017-11-28T15:24:19.613Z,20
2017-11-28T15:25:30.148Z,20
2017-11-28T15:26:40.363Z,16
2017-11-28T15:27:50.671Z,12
2017-11-28T15:29:00.734Z,8
2017-11-28T15:30:11.727Z,8
2017-11-28T15:31:22.186Z,8
2017-11-28T15:32:32.550Z,4
2017-11-28T15:33:43.902Z,4
2017-11-28T15:34:55.527Z,4
2017-11-28T15:36:05.986Z,4
2017-11-28T15:37:16.866Z,0
2017-11-28T15:38:27.357Z,0
2017-11-28T15:39:37.939Z,0
2017-11-28T15:40:48.846Z,4
2017-11-28T15:41:59.146Z,4
2017-11-28T15:43:09.856Z,0
2017-11-28T15:44:20.381Z,0
2017-11-28T15:45:30.773Z,0
2017-11-28T15:46:41.083Z,0
2017-11-28T15:47:51.637Z,0
2017-11-28T15:49:02.431Z,0
2017-11-28T15:50:12.554Z,0
2017-11-28T15:51:22.662Z,0
2017-11-28T15:52:33.205Z,0
2017-11-28T15:53:43.287Z,0
2017-11-28T15:54:54.539Z,0
2017-11-28T15:56:05.744Z,0
2017-11-28T15:57:16.756Z,0
2017-11-28T15:58:27.523Z,0
2017-11-28T15:59:37.801Z,0
2017-11-28T16:00:48.573Z,0
2017-11-28T16:01:58.964Z,0
2017-11-28T16:03:08.889Z,0
2017-11-28T16:04:19.468Z,0
2017-11-28T16:05:30.375Z,0
2017-11-28T16:06:40.680Z,0
2017-11-28T16:07:51.111Z,0
2017-11-28T16:09:01.584Z,0
2017-11-28T16:10:12.095Z,0
2017-11-28T16:11:23.017Z,0
2017-11-28T16:12:33.074Z,0
2017-11-28T16:13:43.650Z,0
2017-11-28T16:14:54.041Z,0
2017-11-28T16:16:04.588Z,0
2017-11-28T16:17:15.329Z,0
2017-11-28T16:18:25.358Z,0
2017-11-28T16:19:35.722Z,0
2017-11-28T16:20:45.760Z,0
2017-11-28T16:21:56.108Z,0
2017-11-28T16:23:06.623Z,0
2017-11-28T16:24:17.002Z,0
2017-11-28T16:25:27.387Z,0
2017-11-28T16:26:37.818Z,0
2017-11-28T16:27:48.385Z,0